Time;durP1;ratioP1;P1;durP2;ratioP2;P2;SDS_P1;SDS_P2;PMS_P1;PMS_P2;Temp;Humidity;BMP_temperature;BMP_pressure;BME280_temperature;BME280_humidity;BME280_pressure;Samples;Min_cycle;Max_cycle;Signal;HPM_P1;HPM_P2
2023/06/12 00:00:47;;;;;;;8.52;5.65;;;20.30;58.70;;;;;;4997855;28;20490;-77
2023/06/12 00:03:16;;;;;;;7.17;5.67;;;20.30;58.90;;;;;;5000409;28;20058;-79
2023/06/12 00:05:44;;;;;;;7.38;5.68;;;20.20;59.00;;;;;;4995365;28;20054;-61
2023/06/12 00:08:11;;;;;;;9.55;5.65;;;20.20;59.20;;;;;;4995216;28;20049;-61
2023/06/12 00:10:39;;;;;;;7.40;5.63;;;20.10;59.20;;;;;;4993686;28;20050;-79
2023/06/12 00:13:06;;;;;;;10.00;6.15;;;20.10;59.30;;;;;;4994016;28;20042;-79
2023/06/12 00:15:34;;;;;;;8.07;5.88;;;20.10;59.60;;;;;;4995756;28;20042;-61
2023/06/12 00:18:01;;;;;;;8.02;5.90;;;20.00;59.50;;;;;;4986609;28;20073;-62
2023/06/12 00:20:29;;;;;;;7.80;6.22;;;20.00;59.70;;;;;;4992098;28;20039;-70
2023/06/12 00:22:56;;;;;;;7.35;5.60;;;19.90;59.90;;;;;;4976669;28;20050;-70
2023/06/12 00:25:24;;;;;;;7.70;5.60;;;19.90;59.90;;;;;;4995775;28;20046;-70
2023/06/12 00:27:50;;;;;;;7.10;5.47;;;19.90;60.10;;;;;;4994449;28;20054;-70
2023/06/12 00:30:17;;;;;;;8.48;6.30;;;19.90;60.20;;;;;;4995818;28;20038;-70
2023/06/12 00:32:45;;;;;;;7.35;5.50;;;19.80;60.30;;;;;;4995756;28;20120;-77
2023/06/12 00:35:12;;;;;;;7.28;5.47;;;19.70;60.50;;;;;;4994552;28;20042;-76
2023/06/12 00:37:42;;;;;;;8.48;5.85;;;19.70;60.60;;;;;;4996517;28;20054;-75
2023/06/12 00:40:10;;;;;;;7.13;5.55;;;19.60;60.80;;;;;;4995703;28;20548;-76
2023/06/12 00:42:45;;;;;;;8.80;6.10;;;19.60;60.90;;;;;;4996655;28;20042;-76
2023/06/12 00:45:13;;;;;;;9.43;6.10;;;19.60;60.80;;;;;;4985874;28;20469;-76
2023/06/12 00:47:41;;;;;;;8.90;6.18;;;19.60;61.20;;;;;;4991339;28;20054;-75
2023/06/12 00:50:11;;;;;;;9.57;6.45;;;19.60;61.20;;;;;;4974673;28;20049;-76
2023/06/12 00:52:40;;;;;;;7.32;5.13;;;19.50;61.40;;;;;;4995953;28;20055;-75
2023/06/12 00:55:08;;;;;;;7.83;6.10;;;19.50;61.60;;;;;;4995809;28;20038;-76
2023/06/12 00:57:36;;;;;;;7.78;5.70;;;19.50;61.90;;;;;;4996379;28;20058;-76
2023/06/12 01:00:06;;;;;;;8.43;5.80;;;19.40;62.10;;;;;;4966021;28;20061;-76
2023/06/12 01:02:38;;;;;;;10.52;6.07;;;19.30;62.20;;;;;;4973485;28;20502;-75
2023/06/12 01:05:07;;;;;;;8.25;6.07;;;19.30;62.20;;;;;;4994818;28;20050;-76
2023/06/12 01:07:46;;;;;;;8.73;6.18;;;19.20;62.20;;;;;;4977862;28;20057;-75
2023/06/12 01:10:19;;;;;;;7.97;6.10;;;19.20;62.50;;;;;;4996271;28;20045;-76
2023/06/12 01:12:47;;;;;;;7.63;6.30;;;19.10;62.70;;;;;;4996441;28;20054;-76
2023/06/12 01:15:15;;;;;;;7.65;6.03;;;19.10;62.90;;;;;;4977873;28;20046;-76
2023/06/12 01:17:42;;;;;;;8.13;5.97;;;19.00;63.20;;;;;;4996486;28;20109;-76
2023/06/12 01:20:12;;;;;;;8.48;5.78;;;19.00;63.30;;;;;;4976141;28;20170;-76
2023/06/12 01:22:46;;;;;;;8.07;6.32;;;18.90;63.60;;;;;;4977858;28;20057;-76
2023/06/12 01:25:58;;;;;;;7.63;5.78;;;18.90;63.70;;;;;;4994748;28;20896;-75
2023/06/12 01:28:49;;;;;;;7.05;5.43;;;18.90;63.70;;;;;;4975484;28;20050;-77
2023/06/12 01:31:25;;;;;;;7.90;6.43;;;18.80;63.70;;;;;;4994295;28;20089;-64
2023/06/12 01:34:02;;;;;;;8.57;6.00;;;18.80;64.00;;;;;;4978009;28;20080;-64
2023/06/12 01:36:31;;;;;;;10.40;6.70;;;18.80;64.10;;;;;;4978362;28;20058;-68
2023/06/12 01:39:02;;;;;;;7.88;5.97;;;18.70;64.40;;;;;;4969268;28;20134;-68
2023/06/12 01:41:32;;;;;;;8.57;6.40;;;18.70;64.50;;;;;;4995641;28;20061;-69
2023/06/12 01:44:08;;;;;;;7.22;5.65;;;18.70;64.60;;;;;;4988037;28;20130;-69
2023/06/12 01:46:36;;;;;;;7.05;5.90;;;18.60;64.80;;;;;;4975758;28;20064;-64
2023/06/12 01:49:06;;;;;;;8.25;6.30;;;18.60;64.90;;;;;;4971191;28;20042;-65
2023/06/12 01:51:33;;;;;;;8.95;6.35;;;18.60;64.90;;;;;;4991996;28;20085;-64
2023/06/12 01:54:01;;;;;;;8.27;6.15;;;18.60;64.90;;;;;;4974828;28;20089;-65
2023/06/12 01:56:30;;;;;;;7.80;5.97;;;18.60;65.00;;;;;;4982573;28;20135;-72
2023/06/12 01:58:57;;;;;;;8.80;6.22;;;18.60;65.10;;;;;;4972450;28;20057;-76
2023/06/12 02:01:40;;;;;;;8.35;6.60;;;18.60;65.10;;;;;;4972408;28;20522;-76
2023/06/12 02:04:08;;;;;;;7.90;6.38;;;18.50;65.20;;;;;;4978345;28;20045;-76
2023/06/12 02:06:35;;;;;;;9.30;5.97;;;18.40;65.30;;;;;;4976557;28;20472;-62
2023/06/12 02:09:02;;;;;;;7.57;5.97;;;18.40;65.20;;;;;;4985428;28;20647;-61
2023/06/12 02:11:29;;;;;;;7.45;6.50;;;18.50;65.20;;;;;;4990367;28;20412;-70
2023/06/12 02:13:56;;;;;;;8.70;6.07;;;18.40;65.20;;;;;;4990318;28;20134;-71
2023/06/12 02:16:23;;;;;;;7.50;5.95;;;18.40;65.40;;;;;;4974269;28;20056;-69
2023/06/12 02:18:52;;;;;;;9.90;6.75;;;18.30;65.40;;;;;;4977692;28;20057;-68
2023/06/12 02:21:20;;;;;;;9.23;6.40;;;18.40;65.40;;;;;;4973484;28;20398;-68
2023/06/12 02:23:48;;;;;;;7.95;6.35;;;18.30;65.40;;;;;;4976544;28;20054;-69
2023/06/12 02:26:18;;;;;;;8.00;5.82;;;18.30;65.20;;;;;;4976061;28;20046;-67
2023/06/12 02:29:05;;;;;;;8.45;6.80;;;18.30;65.20;;;;;;4990745;28;20240;-67
2023/06/12 02:31:32;;;;;;;7.78;5.63;;;18.20;65.30;;;;;;4994085;28;20061;-62
2023/06/12 02:33:59;;;;;;;8.63;6.05;;;18.20;65.40;;;;;;4973241;28;20060;-61
2023/06/12 02:36:27;;;;;;;7.63;5.68;;;18.10;65.50;;;;;;4995235;28;20124;-69
2023/06/12 02:38:54;;;;;;;6.70;5.80;;;18.10;65.50;;;;;;4966984;28;20063;-69
2023/06/12 02:41:21;;;;;;;7.70;6.03;;;18.10;65.60;;;;;;4990139;28;20046;-81
2023/06/12 02:43:48;;;;;;;7.00;5.75;;;18.00;65.70;;;;;;4978155;28;20049;-81
2023/06/12 02:46:17;;;;;;;8.60;6.38;;;18.00;66.00;;;;;;4977219;28;20573;-66
2023/06/12 02:48:43;;;;;;;7.97;5.97;;;17.90;66.20;;;;;;4995161;28;20409;-65
2023/06/12 02:51:10;;;;;;;8.77;6.22;;;17.90;66.20;;;;;;4988397;28;20054;-77
2023/06/12 02:53:39;;;;;;;8.23;6.20;;;17.90;66.30;;;;;;4979548;28;20048;-77
2023/06/12 02:56:05;;;;;;;7.95;6.53;;;17.90;66.40;;;;;;4995299;28;20137;-69
2023/06/12 02:58:34;;;;;;;7.45;5.88;;;17.80;66.60;;;;;;4974218;28;20124;-68
2023/06/12 03:01:04;;;;;;;8.45;6.20;;;17.90;66.60;;;;;;4965765;28;20105;-70
2023/06/12 03:03:31;;;;;;;8.43;6.43;;;17.80;66.60;;;;;;4973384;28;20457;-70
2023/06/12 03:05:58;;;;;;;9.65;6.45;;;17.80;66.70;;;;;;4987823;28;20050;-70
2023/06/12 03:08:25;;;;;;;9.20;6.80;;;17.70;66.80;;;;;;4974632;28;20073;-70
2023/06/12 03:10:54;;;;;;;8.50;6.32;;;17.70;66.90;;;;;;4992299;28;20502;-77
2023/06/12 03:13:21;;;;;;;8.52;6.00;;;17.70;66.90;;;;;;4993705;28;20132;-77
2023/06/12 03:15:49;;;;;;;7.65;6.15;;;17.70;67.00;;;;;;4975464;28;20441;-71
2023/06/12 03:18:16;;;;;;;9.77;6.35;;;17.70;67.20;;;;;;4992954;28;20050;-71
2023/06/12 03:20:43;;;;;;;9.38;6.95;;;17.70;67.30;;;;;;4991615;28;20695;-69
2023/06/12 03:23:10;;;;;;;8.80;6.55;;;17.60;67.30;;;;;;4974911;28;20050;-69
2023/06/12 03:25:36;;;;;;;7.88;6.25;;;17.60;67.40;;;;;;4971093;28;20065;-77
2023/06/12 03:28:05;;;;;;;10.13;6.13;;;17.60;67.50;;;;;;4975871;28;20104;-77
2023/06/12 03:30:32;;;;;;;8.95;5.90;;;17.60;67.60;;;;;;4976800;28;20679;-61
2023/06/12 03:32:59;;;;;;;9.15;6.80;;;17.60;67.60;;;;;;4995065;28;20077;-61
2023/06/12 03:35:26;;;;;;;8.32;6.55;;;17.50;67.70;;;;;;4978839;28;20100;-80
2023/06/12 03:37:54;;;;;;;9.32;7.15;;;17.60;67.70;;;;;;4980683;28;20454;-81
2023/06/12 03:40:21;;;;;;;10.18;7.03;;;17.50;67.80;;;;;;4995512;28;20081;-67
2023/06/12 03:42:48;;;;;;;10.88;6.95;;;17.50;67.80;;;;;;4974585;28;20046;-65
2023/06/12 03:45:16;;;;;;;10.55;7.90;;;17.50;67.80;;;;;;4978860;28;20045;-66
2023/06/12 03:47:43;;;;;;;9.00;7.13;;;17.40;68.00;;;;;;4988061;28;20060;-67
2023/06/12 03:50:13;;;;;;;8.43;7.10;;;17.40;68.10;;;;;;4979640;28;20062;-66
2023/06/12 03:52:40;;;;;;;8.65;7.15;;;17.50;68.00;;;;;;4975983;28;20070;-66
2023/06/12 03:55:08;;;;;;;8.93;6.82;;;17.40;68.10;;;;;;4995369;28;20046;-66
2023/06/12 03:57:36;;;;;;;9.98;6.93;;;17.40;68.20;;;;;;4996583;28;20050;-66
2023/06/12 04:00:05;;;;;;;9.60;7.35;;;17.50;68.10;;;;;;4996671;28;20057;-66
2023/06/12 04:02:47;;;;;;;8.40;6.88;;;17.50;68.10;;;;;;4996947;28;20081;-70
2023/06/12 04:05:20;;;;;;;9.70;6.85;;;17.40;68.30;;;;;;4981295;28;20050;-70
2023/06/12 04:07:47;;;;;;;9.05;7.32;;;17.40;68.10;;;;;;4996713;28;20046;-70
2023/06/12 04:10:14;;;;;;;8.90;7.60;;;17.50;68.10;;;;;;4996481;28;20046;-72
2023/06/12 04:12:41;;;;;;;10.43;7.97;;;17.50;68.10;;;;;;4996595;28;20149;-71
2023/06/12 04:15:08;;;;;;;8.68;7.45;;;17.50;68.10;;;;;;4999817;28;20047;-71
2023/06/12 04:17:35;;;;;;;10.60;7.32;;;17.40;68.00;;;;;;4975317;28;20039;-71
2023/06/12 04:20:06;;;;;;;10.05;7.78;;;17.60;67.80;;;;;;4977970;28;20052;-71
2023/06/12 04:22:33;;;;;;;9.75;7.32;;;17.60;67.60;;;;;;4974268;28;20438;-82
2023/06/12 04:25:01;;;;;;;9.63;7.57;;;17.60;67.70;;;;;;4980855;28;20046;-81
2023/06/12 04:27:29;;;;;;;8.63;7.60;;;17.60;67.80;;;;;;4989019;28;20048;-80
2023/06/12 04:29:57;;;;;;;9.75;6.95;;;17.60;67.80;;;;;;4980708;28;20050;-82
2023/06/12 04:32:24;;;;;;;9.80;7.70;;;17.60;67.70;;;;;;4980124;28;20053;-66
2023/06/12 04:34:54;;;;;;;9.07;6.90;;;17.60;67.90;;;;;;4978434;28;20586;-66
2023/06/12 04:37:22;;;;;;;;;;;17.70;67.90;;;;;;4995949;28;20520;-66
2023/06/12 04:39:50;;;;;;;9.13;7.35;;;17.70;67.80;;;;;;4978826;28;19929;-66
2023/06/12 04:42:18;;;;;;;8.57;6.80;;;17.70;67.80;;;;;;4978325;28;20053;-71
2023/06/12 04:44:46;;;;;;;9.82;7.30;;;17.70;67.80;;;;;;4992728;28;20061;-71
2023/06/12 04:47:15;;;;;;;9.80;6.97;;;17.80;67.60;;;;;;4977368;28;20046;-61
2023/06/12 04:49:43;;;;;;;8.63;6.82;;;17.80;67.50;;;;;;4978478;28;20105;-61
2023/06/12 04:52:12;;;;;;;8.60;6.88;;;17.80;67.30;;;;;;4978261;28;20132;-70
2023/06/12 04:54:41;;;;;;;9.93;7.15;;;17.90;67.10;;;;;;4978310;28;20172;-70
2023/06/12 04:57:12;;;;;;;8.82;6.97;;;17.90;66.80;;;;;;4972128;28;20050;-70
2023/06/12 04:59:40;;;;;;;9.15;7.00;;;18.00;66.60;;;;;;4979164;28;20062;-70
2023/06/12 05:02:08;;;;;;;8.70;6.32;;;18.00;66.10;;;;;;4994371;28;20116;-70
2023/06/12 05:04:36;;;;;;;9.20;6.80;;;18.00;66.00;;;;;;4978486;28;20116;-69
2023/06/12 05:07:05;;;;;;;8.55;6.80;;;18.00;66.30;;;;;;4979361;28;20060;-70
2023/06/12 05:09:33;;;;;;;8.23;6.40;;;17.90;66.50;;;;;;4994278;28;20133;-70
2023/06/12 05:12:03;;;;;;;10.85;6.30;;;18.00;66.00;;;;;;4985344;28;20051;-70
2023/06/12 05:14:32;;;;;;;9.77;7.20;;;18.10;65.90;;;;;;4979130;28;20105;-69
2023/06/12 05:17:00;;;;;;;8.23;6.40;;;18.10;65.80;;;;;;4978812;28;20054;-67
2023/06/12 05:19:27;;;;;;;9.20;6.80;;;18.20;65.60;;;;;;4977838;28;20054;-67
2023/06/12 05:21:54;;;;;;;7.68;5.75;;;18.20;65.20;;;;;;4995356;28;20046;-79
2023/06/12 05:24:21;;;;;;;8.45;6.18;;;18.20;65.50;;;;;;4979279;28;20054;-79
2023/06/12 05:26:54;;;;;;;8.38;6.13;;;18.30;65.60;;;;;;4971650;28;20097;-67
2023/06/12 05:29:28;;;;;;;9.30;6.70;;;18.30;65.90;;;;;;4991651;28;20080;-68
2023/06/12 05:31:56;;;;;;;9.50;6.95;;;18.30;66.10;;;;;;4983283;28;20054;-78
2023/06/12 05:34:31;;;;;;;8.50;6.32;;;18.30;66.00;;;;;;4997640;28;20077;-79
2023/06/12 05:36:58;;;;;;;8.48;6.22;;;18.30;66.00;;;;;;4978936;28;20133;-68
2023/06/12 05:39:28;;;;;;;9.93;6.43;;;18.30;66.10;;;;;;4996186;28;20074;-68
2023/06/12 05:41:55;;;;;;;7.47;6.03;;;18.40;66.00;;;;;;4971391;28;20460;-69
2023/06/12 05:44:23;;;;;;;8.85;6.60;;;18.40;65.80;;;;;;4976465;28;20085;-68
2023/06/12 05:46:51;;;;;;;8.13;6.30;;;18.50;66.00;;;;;;4976560;28;20519;-68
2023/06/12 05:49:19;;;;;;;8.55;6.07;;;18.50;65.90;;;;;;4975839;28;20053;-68
2023/06/12 05:51:46;;;;;;;10.07;6.55;;;18.60;65.40;;;;;;4977166;28;20059;-69
2023/06/12 05:54:13;;;;;;;9.30;6.13;;;18.60;65.50;;;;;;4979788;28;20108;-69
2023/06/12 05:56:40;;;;;;;9.00;6.07;;;18.60;65.20;;;;;;4977641;28;20065;-69
2023/06/12 05:59:08;;;;;;;9.82;6.15;;;18.60;65.40;;;;;;4977756;28;20073;-69
2023/06/12 06:01:37;;;;;;;8.20;6.57;;;18.70;65.00;;;;;;4975042;28;20049;-67
2023/06/12 06:04:05;;;;;;;8.75;7.13;;;18.70;65.10;;;;;;4997023;28;20046;-66
2023/06/12 06:06:32;;;;;;;9.90;7.63;;;18.70;65.40;;;;;;4994501;28;20054;-67
2023/06/12 06:09:03;;;;;;;9.48;7.28;;;18.70;65.00;;;;;;4978085;28;20081;-66
2023/06/12 06:11:30;;;;;;;11.85;8.23;;;18.80;65.30;;;;;;4993181;28;20042;-67
2023/06/12 06:14:01;;;;;;;10.85;7.65;;;18.90;64.60;;;;;;4971568;28;20061;-67
2023/06/12 06:16:28;;;;;;;;;;;18.90;65.00;;;;;;4993957;28;20056;-79
2023/06/12 06:18:56;;;;;;;9.65;7.22;;;19.00;65.00;;;;;;4988348;28;20044;-79
2023/06/12 06:21:23;;;;;;;9.80;7.07;;;19.10;65.00;;;;;;4988880;28;20060;-78
2023/06/12 06:23:51;;;;;;;10.80;7.05;;;19.20;64.60;;;;;;4979127;28;20101;-78
2023/06/12 06:26:19;;;;;;;10.65;7.70;;;19.20;64.70;;;;;;4975648;28;20597;-66
2023/06/12 06:28:46;;;;;;;10.82;8.07;;;19.40;64.60;;;;;;4991194;28;20062;-66
2023/06/12 06:31:13;;;;;;;12.13;8.13;;;19.50;64.40;;;;;;4977831;28;20168;-78
2023/06/12 06:33:40;;;;;;;12.60;9.13;;;19.60;63.70;;;;;;4976655;28;20141;-78
2023/06/12 06:36:09;;;;;;;12.10;8.30;;;19.80;63.00;;;;;;4978064;28;20101;-78
2023/06/12 06:38:36;;;;;;;10.80;7.68;;;20.00;62.80;;;;;;4994345;28;20050;-78
2023/06/12 06:41:04;;;;;;;10.50;7.57;;;20.10;62.50;;;;;;4976544;28;20088;-61
2023/06/12 06:43:34;;;;;;;;;;;20.20;62.10;;;;;;4992807;28;20046;-61
2023/06/12 06:46:06;;;;;;;8.82;6.72;;;20.40;61.80;;;;;;4989800;28;19921;-79
2023/06/12 06:48:34;;;;;;;8.55;6.97;;;20.50;61.60;;;;;;4985962;28;20049;-78
2023/06/12 06:51:03;;;;;;;7.93;6.53;;;20.60;61.20;;;;;;4986375;28;20569;-66
2023/06/12 06:53:32;;;;;;;9.00;6.57;;;20.80;60.60;;;;;;4993816;28;21253;-66
2023/06/12 06:55:59;;;;;;;10.38;7.07;;;21.00;60.10;;;;;;4977723;28;20042;-69
2023/06/12 06:58:27;;;;;;;8.55;6.72;;;21.20;59.50;;;;;;4994026;28;20564;-69
2023/06/12 07:00:54;;;;;;;8.57;6.72;;;21.40;58.70;;;;;;4968539;28;20042;-67
2023/06/12 07:03:21;;;;;;;9.00;6.57;;;21.60;58.10;;;;;;4991764;28;20061;-67
2023/06/12 07:05:48;;;;;;;8.63;7.00;;;21.70;58.40;;;;;;4976645;28;20072;-70
2023/06/12 07:08:15;;;;;;;8.63;6.80;;;21.90;58.10;;;;;;4978174;28;20408;-71
2023/06/12 07:10:44;;;;;;;8.55;6.72;;;22.00;57.60;;;;;;4966856;28;20129;-79
2023/06/12 07:13:13;;;;;;;8.13;6.60;;;22.10;56.90;;;;;;4977123;28;20398;-77
2023/06/12 07:15:59;;;;;;;9.43;6.88;;;22.30;56.10;;;;;;4977225;28;20123;-62
2023/06/12 07:18:26;;;;;;;8.70;6.55;;;22.60;55.80;;;;;;4970037;28;20064;-63
2023/06/12 07:20:54;;;;;;;9.32;6.32;;;22.70;55.40;;;;;;4993972;28;20046;-69
2023/06/12 07:23:21;;;;;;;8.30;6.47;;;22.90;54.90;;;;;;4975611;28;20046;-69
2023/06/12 07:25:50;;;;;;;8.95;6.72;;;23.00;54.90;;;;;;4977242;28;20061;-79
2023/06/12 07:28:17;;;;;;;8.00;6.20;;;23.20;54.30;;;;;;4973822;28;20051;-79
2023/06/12 07:30:44;;;;;;;7.82;6.25;;;23.40;53.10;;;;;;4977376;28;20046;-71
2023/06/12 07:33:12;;;;;;;9.82;6.53;;;23.50;53.10;;;;;;4978633;28;20069;-72
2023/06/12 07:35:40;;;;;;;10.32;6.18;;;23.70;53.20;;;;;;4976723;28;20051;-71
2023/06/12 07:38:07;;;;;;;9.90;6.60;;;23.80;52.60;;;;;;4994306;28;20046;-72
2023/06/12 07:40:34;;;;;;;10.45;6.95;;;24.00;52.20;;;;;;4973604;28;20071;-68
2023/06/12 07:43:05;;;;;;;9.48;6.72;;;24.10;51.80;;;;;;4992112;28;20070;-67
2023/06/12 07:45:32;;;;;;;8.63;7.10;;;24.30;51.50;;;;;;4972316;28;20568;-69
2023/06/12 07:47:59;;;;;;;7.90;6.78;;;24.30;50.50;;;;;;4993791;28;20042;-69
2023/06/12 07:50:31;;;;;;;8.25;6.35;;;24.50;50.40;;;;;;4973660;28;20056;-69
2023/06/12 07:52:58;;;;;;;8.50;6.82;;;24.60;50.40;;;;;;4985475;28;20136;-70
2023/06/12 07:55:26;;;;;;;8.68;6.20;;;24.80;49.90;;;;;;4982461;28;20053;-61
2023/06/12 07:57:54;;;;;;;10.40;6.43;;;24.90;49.80;;;;;;4976258;28;20046;-61
2023/06/12 08:00:24;;;;;;;8.38;6.45;;;25.00;49.20;;;;;;4976313;28;20074;-67
2023/06/12 08:02:58;;;;;;;8.75;6.43;;;25.00;48.60;;;;;;4992170;28;20502;-67
2023/06/12 08:05:37;;;;;;;7.38;6.10;;;25.10;48.60;;;;;;4976800;28;20054;-77
2023/06/12 08:08:12;;;;;;;8.38;6.05;;;25.30;47.70;;;;;;4978419;28;20494;-78
2023/06/12 08:10:39;;;;;;;7.60;5.82;;;25.50;47.80;;;;;;4978150;28;20056;-67
2023/06/12 08:13:06;;;;;;;7.45;6.18;;;25.50;47.50;;;;;;4972373;28;20058;-68
2023/06/12 08:15:35;;;;;;;7.70;5.97;;;25.60;47.40;;;;;;4980427;28;20042;-68
2023/06/12 08:18:04;;;;;;;7.40;6.10;;;25.70;47.10;;;;;;4979737;28;20399;-68
2023/06/12 08:20:31;;;;;;;7.93;6.88;;;25.90;46.70;;;;;;4977978;28;20046;-69
2023/06/12 08:23:03;;;;;;;8.43;6.20;;;25.90;46.40;;;;;;4997139;28;20054;-68
2023/06/12 08:25:30;;;;;;;7.63;6.22;;;26.00;46.50;;;;;;4996732;28;20092;-68
2023/06/12 08:27:58;;;;;;;7.15;6.22;;;26.10;45.70;;;;;;4989343;28;20054;-68
2023/06/12 08:30:25;;;;;;;8.07;5.93;;;26.30;45.60;;;;;;4977758;28;20076;-78
2023/06/12 08:32:53;;;;;;;7.55;5.97;;;26.30;45.70;;;;;;4978745;28;20057;-78
2023/06/12 08:35:20;;;;;;;7.85;5.60;;;26.40;45.10;;;;;;4974301;28;20054;-67
2023/06/12 08:37:48;;;;;;;7.97;5.78;;;26.60;44.90;;;;;;4978902;28;20070;-67
2023/06/12 08:40:16;;;;;;;7.57;5.82;;;26.70;44.70;;;;;;4981596;28;20046;-79
2023/06/12 08:42:49;;;;;;;7.00;5.65;;;26.80;44.30;;;;;;4996988;28;20108;-78
2023/06/12 08:45:18;;;;;;;7.22;5.70;;;26.70;44.60;;;;;;4991244;28;20073;-76
2023/06/12 08:47:48;;;;;;;6.47;5.68;;;26.90;44.00;;;;;;4994625;28;20050;-75
2023/06/12 08:50:18;;;;;;;7.90;5.78;;;27.00;43.80;;;;;;4997169;28;20054;-76
2023/06/12 08:52:45;;;;;;;7.88;6.10;;;27.00;42.50;;;;;;4996558;28;20062;-77
2023/06/12 08:55:17;;;;;;;6.72;5.90;;;27.00;43.30;;;;;;4986685;28;20054;-78
2023/06/12 08:57:44;;;;;;;7.03;5.93;;;27.10;42.70;;;;;;4994138;28;20413;-77
2023/06/12 09:00:13;;;;;;;7.10;5.85;;;27.30;43.10;;;;;;4992462;28;20061;-76
2023/06/12 09:02:45;;;;;;;6.50;5.80;;;27.50;42.80;;;;;;4993810;28;20141;-77
2023/06/12 09:05:17;;;;;;;9.05;6.10;;;27.60;42.10;;;;;;4993639;28;20050;-76
2023/06/12 09:07:46;;;;;;;7.43;5.60;;;27.40;42.50;;;;;;4995430;28;20058;-77
2023/06/12 09:10:14;;;;;;;7.72;5.60;;;27.40;41.80;;;;;;4994324;28;20497;-77
2023/06/12 09:12:45;;;;;;;8.05;5.90;;;27.50;41.80;;;;;;4993714;28;20457;-77
2023/06/12 09:15:17;;;;;;;7.10;5.68;;;27.70;41.80;;;;;;4997044;28;20052;-76
2023/06/12 09:17:47;;;;;;;6.90;5.30;;;27.80;41.10;;;;;;4996588;28;20057;-77
2023/06/12 09:20:22;;;;;;;6.65;5.93;;;28.00;40.00;;;;;;4995719;28;20508;-70
2023/06/12 09:22:51;;;;;;;7.63;5.50;;;28.00;40.30;;;;;;4995730;28;20051;-71
2023/06/12 09:25:18;;;;;;;6.68;5.32;;;27.90;39.90;;;;;;4995910;28;20057;-81
2023/06/12 09:27:46;;;;;;;7.75;5.88;;;28.00;39.90;;;;;;4995621;28;20062;-80
2023/06/12 09:30:14;;;;;;;8.25;5.60;;;28.20;39.60;;;;;;4996444;28;20504;-67
2023/06/12 09:32:42;;;;;;;8.13;5.43;;;28.30;39.20;;;;;;4993641;28;20061;-68
2023/06/12 09:35:13;;;;;;;7.60;5.40;;;28.50;39.30;;;;;;4996272;28;20426;-68
2023/06/12 09:37:42;;;;;;;8.68;6.28;;;28.50;38.90;;;;;;4976910;28;20077;-69
2023/06/12 09:40:13;;;;;;;7.03;5.47;;;28.50;39.80;;;;;;4993712;28;20593;-70
2023/06/12 09:42:41;;;;;;;7.22;5.80;;;28.50;39.30;;;;;;4993759;28;20060;-67
2023/06/12 09:45:12;;;;;;;5.67;4.97;;;28.60;39.20;;;;;;4996477;28;20058;-67
2023/06/12 09:47:44;;;;;;;7.78;6.60;;;28.80;38.50;;;;;;4987294;28;21040;-69
2023/06/12 09:50:12;;;;;;;7.43;6.63;;;28.90;39.00;;;;;;4997527;28;20054;-68
2023/06/12 09:52:43;;;;;;;13.43;10.20;;;28.90;38.80;;;;;;4992325;28;20509;-67
2023/06/12 09:55:12;;;;;;;10.25;8.70;;;29.10;38.30;;;;;;4995501;28;20062;-71
2023/06/12 09:57:41;;;;;;;8.18;7.30;;;29.10;37.80;;;;;;4993089;28;20065;-75
2023/06/12 10:00:11;;;;;;;9.43;7.30;;;29.20;36.90;;;;;;4992155;28;20136;-76
2023/06/12 10:02:42;;;;;;;13.52;12.13;;;29.20;37.00;;;;;;4993199;28;20156;-76
2023/06/12 10:05:18;;;;;;;10.40;9.02;;;29.20;37.20;;;;;;4995668;28;20050;-72
2023/06/12 10:07:51;;;;;;;10.65;8.40;;;29.30;36.70;;;;;;4993339;28;20116;-62
2023/06/12 10:10:19;;;;;;;9.27;7.30;;;29.40;36.20;;;;;;4995049;28;20061;-69
2023/06/12 10:12:47;;;;;;;8.27;6.65;;;29.40;36.20;;;;;;4992281;28;20054;-69
2023/06/12 10:15:14;;;;;;;7.97;6.07;;;29.40;36.10;;;;;;4993805;28;20046;-77
2023/06/12 10:17:41;;;;;;;6.47;5.78;;;29.50;35.70;;;;;;4975171;28;20058;-76
2023/06/12 10:20:10;;;;;;;6.72;6.03;;;29.50;35.40;;;;;;4995431;28;20561;-77
2023/06/12 10:22:37;;;;;;;7.28;6.40;;;29.60;35.90;;;;;;4995801;28;20066;-77
2023/06/12 10:25:07;;;;;;;8.10;6.45;;;29.60;35.50;;;;;;4995256;28;20121;-77
2023/06/12 10:27:36;;;;;;;9.70;6.32;;;29.60;35.70;;;;;;4974057;28;20043;-77
2023/06/12 10:30:03;;;;;;;6.43;5.50;;;29.70;35.00;;;;;;4992973;28;20053;-77
2023/06/12 10:32:33;;;;;;;7.57;5.68;;;29.80;34.50;;;;;;4994632;28;20141;-75
2023/06/12 10:35:01;;;;;;;7.38;5.10;;;29.90;34.70;;;;;;4993459;28;20053;-76
2023/06/12 10:37:30;;;;;;;5.72;4.82;;;29.90;33.60;;;;;;4992714;28;20046;-67
2023/06/12 10:40:12;;;;;;;6.57;5.22;;;29.80;33.00;;;;;;4994369;28;20054;-67
2023/06/12 10:42:41;;;;;;;5.75;4.70;;;29.90;33.30;;;;;;4991340;28;20053;-68
2023/06/12 10:45:16;;;;;;;6.70;5.57;;;30.00;33.90;;;;;;4993774;28;20048;-67
2023/06/12 10:47:43;;;;;;;8.48;5.28;;;30.00;33.70;;;;;;4991541;28;20119;-68
2023/06/12 10:50:10;;;;;;;7.50;4.88;;;30.10;33.50;;;;;;4991649;28;20046;-73
2023/06/12 10:52:52;;;;;;;5.55;4.60;;;30.10;32.90;;;;;;4993845;28;20053;-76
2023/06/12 10:55:31;;;;;;;5.28;4.55;;;30.10;32.60;;;;;;4993130;28;20038;-68
2023/06/12 10:58:00;;;;;;;5.00;4.18;;;30.20;32.60;;;;;;4994000;28;20145;-68
2023/06/12 11:00:31;;;;;;;5.43;4.55;;;30.20;32.20;;;;;;4994117;28;20038;-62
2023/06/12 11:03:00;;;;;;;5.72;4.80;;;30.30;32.70;;;;;;4993020;28;20799;-61
2023/06/12 11:05:28;;;;;;;5.45;4.18;;;30.30;33.30;;;;;;4995298;28;20113;-70
2023/06/12 11:08:00;;;;;;;4.85;4.35;;;30.40;32.70;;;;;;4991860;28;20054;-70
2023/06/12 11:10:29;;;;;;;7.47;4.47;;;30.40;31.90;;;;;;4994283;28;20054;-62
2023/06/12 11:12:57;;;;;;;5.60;4.45;;;30.50;31.10;;;;;;4993851;28;20072;-62
2023/06/12 11:15:25;;;;;;;5.93;4.85;;;30.50;32.00;;;;;;4993639;28;20057;-75
2023/06/12 11:17:52;;;;;;;7.10;4.72;;;30.50;32.20;;;;;;4991131;28;20058;-75
2023/06/12 11:20:22;;;;;;;5.28;4.10;;;30.50;31.00;;;;;;4994844;28;20046;-67
2023/06/12 11:22:50;;;;;;;5.63;4.18;;;30.60;31.80;;;;;;4991347;28;20137;-67
2023/06/12 11:25:17;;;;;;;6.18;4.07;;;30.60;31.30;;;;;;4995825;28;20049;-67
2023/06/12 11:27:48;;;;;;;5.82;4.07;;;30.50;31.20;;;;;;4990124;28;20564;-68
2023/06/12 11:30:16;;;;;;;6.60;4.18;;;30.50;30.70;;;;;;4993577;28;20053;-72
2023/06/12 11:32:43;;;;;;;7.50;4.32;;;30.50;31.30;;;;;;4993186;28;20644;-71
2023/06/12 11:35:12;;;;;;;5.15;4.00;;;30.50;31.20;;;;;;4993716;28;20552;-68
2023/06/12 11:37:40;;;;;;;;;;;30.60;31.10;;;;;;4991607;28;20128;-76
2023/06/12 11:40:11;;;;;;;4.97;4.00;;;30.60;31.20;;;;;;4994983;28;20070;-76
2023/06/12 11:42:40;;;;;;;4.75;3.80;;;30.70;30.80;;;;;;4993213;28;20058;-76
2023/06/12 11:45:10;;;;;;;5.55;4.05;;;30.60;29.30;;;;;;4993412;28;20049;-75
2023/06/12 11:47:39;;;;;;;5.63;3.80;;;30.60;29.50;;;;;;4993737;28;20181;-75
2023/06/12 11:50:08;;;;;;;5.30;4.13;;;30.60;29.60;;;;;;4993175;28;20054;-75
2023/06/12 11:52:35;;;;;;;6.78;3.65;;;30.60;30.00;;;;;;4995350;28;20050;-75
2023/06/12 11:55:04;;;;;;;5.03;4.03;;;30.60;30.00;;;;;;4997221;28;20045;-76
2023/06/12 11:57:31;;;;;;;6.53;4.13;;;30.60;29.30;;;;;;4986901;28;20578;-75
2023/06/12 11:59:59;;;;;;;5.22;3.95;;;30.70;29.60;;;;;;4996928;28;20050;-75
2023/06/12 12:02:39;;;;;;;5.82;4.10;;;30.70;30.20;;;;;;4997031;28;20118;-80
2023/06/12 12:05:09;;;;;;;4.80;3.70;;;30.60;29.80;;;;;;4997558;28;20619;-81
2023/06/12 12:07:38;;;;;;;4.72;3.53;;;30.60;29.50;;;;;;4996366;28;20054;-79
2023/06/12 12:10:12;;;;;;;5.57;3.88;;;30.60;29.50;;;;;;4993612;28;20069;-79
2023/06/12 12:12:44;;;;;;;6.07;4.50;;;30.50;29.50;;;;;;4995215;28;20403;-62
2023/06/12 12:15:12;;;;;;;5.45;3.80;;;30.70;30.50;;;;;;4993091;28;20042;-71
2023/06/12 12:17:41;;;;;;;6.73;4.40;;;30.70;30.10;;;;;;4992902;28;20062;-80
2023/06/12 12:20:15;;;;;;;6.93;4.00;;;30.70;31.40;;;;;;4997584;28;20453;-79
2023/06/12 12:22:43;;;;;;;6.60;4.30;;;30.60;30.20;;;;;;5000130;28;20072;-79
2023/06/12 12:25:15;;;;;;;5.55;3.95;;;30.70;30.30;;;;;;4998695;28;20058;-79
2023/06/12 12:27:45;;;;;;;5.35;4.20;;;30.80;30.20;;;;;;4995347;28;20054;-78
2023/06/12 12:30:15;;;;;;;4.60;3.88;;;30.80;30.40;;;;;;4996735;28;20050;-79
2023/06/12 12:32:45;;;;;;;6.28;4.35;;;30.70;30.30;;;;;;4994093;28;20616;-81
2023/06/12 12:35:13;;;;;;;5.40;4.03;;;30.70;31.00;;;;;;4996626;28;20046;-80
2023/06/12 12:37:40;;;;;;;4.87;3.57;;;30.70;32.00;;;;;;4994768;28;20069;-81
2023/06/12 12:40:10;;;;;;;5.43;4.15;;;30.60;30.90;;;;;;4999692;28;20045;-81
2023/06/12 12:42:38;;;;;;;4.75;3.72;;;30.50;30.80;;;;;;4978300;28;20112;-80
2023/06/12 12:45:07;;;;;;;5.38;4.22;;;30.50;30.50;;;;;;4992347;28;20046;-80
2023/06/12 12:47:35;;;;;;;5.25;3.92;;;30.40;30.10;;;;;;4995355;28;20112;-79
2023/06/12 12:50:04;;;;;;;5.73;4.33;;;30.50;30.60;;;;;;4998715;28;20049;-79
2023/06/12 12:52:31;;;;;;;6.03;4.13;;;30.40;30.70;;;;;;4990946;28;20050;-79
2023/06/12 12:54:59;;;;;;;5.80;3.90;;;30.30;30.40;;;;;;4995699;28;20053;-80
2023/06/12 12:57:31;;;;;;;4.85;3.90;;;30.30;29.40;;;;;;4995067;28;20043;-81